createdAt,value
2022-12-19T00:01:53.734Z,18.60
2022-12-19T00:04:21.303Z,20.03
2022-12-19T00:06:48.161Z,20.10
2022-12-19T00:09:15.207Z,20.67
2022-12-19T00:11:42.297Z,19.90
2022-12-19T00:14:11.428Z,19.02
2022-12-19T00:16:38.403Z,18.07
2022-12-19T00:19:08.406Z,19.55
2022-12-19T00:21:35.631Z,18.75
2022-12-19T00:24:14.523Z,18.35
2022-12-19T00:26:49.653Z,19.35
2022-12-19T00:29:17.175Z,18.27
2022-12-19T00:31:44.099Z,18.65
2022-12-19T00:34:11.195Z,19.35
2022-12-19T00:36:38.132Z,19.20
2022-12-19T00:39:08.539Z,18.25
2022-12-19T00:41:41.838Z,19.17
2022-12-19T00:44:16.104Z,19.30
2022-12-19T00:46:43.879Z,18.12
2022-12-19T00:49:17.893Z,21.02
2022-12-19T00:51:47.295Z,19.17
2022-12-19T00:54:16.626Z,20.30
2022-12-19T00:56:43.848Z,20.98
2022-12-19T00:59:10.790Z,20.48
2022-12-19T01:01:40.426Z,20.83
2022-12-19T01:04:30.766Z,21.50
2022-12-19T01:07:01.566Z,21.10
2022-12-19T01:09:30.265Z,19.73
2022-12-19T01:12:15.651Z,21.83
2022-12-19T01:14:42.726Z,21.23
2022-12-19T01:17:09.569Z,21.73
2022-12-19T01:19:41.876Z,20.37
2022-12-19T01:22:11.206Z,19.65
2022-12-19T01:24:38.318Z,20.42
2022-12-19T01:27:05.254Z,19.98
2022-12-19T01:29:33.733Z,20.27
2022-12-19T01:32:03.807Z,20.97
2022-12-19T01:34:30.873Z,18.92
2022-12-19T01:36:57.717Z,22.15
2022-12-19T01:39:24.599Z,22.30
2022-12-19T01:41:54.329Z,20.58
2022-12-19T01:44:25.214Z,23.60
2022-12-19T01:46:57.746Z,21.25
2022-12-19T01:49:33.712Z,23.65
2022-12-19T01:52:04.920Z,22.58
2022-12-19T01:54:35.988Z,21.62
2022-12-19T01:57:06.231Z,22.23
2022-12-19T01:59:38.639Z,23.33
2022-12-19T02:02:17.742Z,23.42
2022-12-19T02:04:46.113Z,21.37
2022-12-19T02:07:16.574Z,21.42
2022-12-19T02:09:56.530Z,22.53
2022-12-19T02:12:25.667Z,22.85
2022-12-19T02:14:54.124Z,21.58
2022-12-19T02:17:35.516Z,22.48
2022-12-19T02:20:43.646Z,21.90
2022-12-19T02:23:34.709Z,21.00
2022-12-19T02:26:26.321Z,19.73
2022-12-19T02:29:02.428Z,20.52
2022-12-19T02:31:31.114Z,21.55
2022-12-19T02:34:09.859Z,21.00
2022-12-19T02:36:40.472Z,21.07
2022-12-19T02:39:51.768Z,20.62
2022-12-19T02:42:31.944Z,20.98
2022-12-19T02:45:01.331Z,20.65
2022-12-19T02:47:31.458Z,20.98
2022-12-19T02:49:58.515Z,22.80
2022-12-19T02:52:25.301Z,20.67
2022-12-19T02:54:56.188Z,19.92
2022-12-19T02:57:49.885Z,21.20
2022-12-19T03:00:23.216Z,22.08
2022-12-19T03:03:01.167Z,22.57
2022-12-19T03:05:36.725Z,21.20
2022-12-19T03:08:22.315Z,21.40
2022-12-19T03:11:01.191Z,22.02
2022-12-19T03:13:35.347Z,21.73
2022-12-19T03:16:04.087Z,22.03
2022-12-19T03:18:33.262Z,21.33
2022-12-19T03:21:13.233Z,20.42
2022-12-19T03:23:41.218Z,19.80
2022-12-19T03:26:16.653Z,21.20
2022-12-19T03:28:54.426Z,20.87
2022-12-19T03:31:27.231Z,20.62
2022-12-19T03:34:01.338Z,24.17
2022-12-19T03:36:33.904Z,22.35
2022-12-19T03:39:03.266Z,22.48
2022-12-19T03:41:50.245Z,20.23
2022-12-19T03:44:19.237Z,20.40
2022-12-19T03:47:06.048Z,21.73
2022-12-19T03:49:33.573Z,20.15
2022-12-19T03:52:13.871Z,18.67
2022-12-19T03:54:45.792Z,21.63
2022-12-19T03:57:25.250Z,21.80
2022-12-19T03:59:58.250Z,19.30
2022-12-19T04:02:26.274Z,21.27
2022-12-19T04:05:02.398Z,21.17
2022-12-19T04:07:29.931Z,18.63
2022-12-19T04:09:59.362Z,17.75
2022-12-19T04:12:33.350Z,20.08
2022-12-19T04:15:00.407Z,17.45
2022-12-19T04:17:42.396Z,18.00
2022-12-19T04:20:24.871Z,18.03
2022-12-19T04:22:51.859Z,18.00
2022-12-19T04:25:29.248Z,18.33
2022-12-19T04:28:10.091Z,16.70
2022-12-19T04:30:39.958Z,16.87
2022-12-19T04:33:07.855Z,16.73
2022-12-19T04:35:35.312Z,16.52
2022-12-19T04:38:02.774Z,15.75
2022-12-19T04:40:30.124Z,17.45
2022-12-19T04:42:58.450Z,18.12
2022-12-19T04:45:25.269Z,15.50
2022-12-19T04:47:52.521Z,16.35
2022-12-19T04:50:19.383Z,16.40
2022-12-19T04:52:46.159Z,16.85
2022-12-19T04:55:13.028Z,17.08
2022-12-19T04:57:39.772Z,16.17
2022-12-19T05:00:08.736Z,15.98
2022-12-19T05:02:36.049Z,16.75
2022-12-19T05:05:03.186Z,15.07
2022-12-19T05:07:30.242Z,15.55
2022-12-19T05:09:57.143Z,16.70
2022-12-19T05:12:23.981Z,15.60
2022-12-19T05:14:50.835Z,17.05
2022-12-19T05:17:17.669Z,16.67
2022-12-19T05:19:44.622Z,17.87
2022-12-19T05:22:11.458Z,22.20
2022-12-19T05:24:38.369Z,24.90
2022-12-19T05:27:05.264Z,25.50
2022-12-19T05:29:32.154Z,22.17
2022-12-19T05:31:59.012Z,21.65
2022-12-19T05:34:26.111Z,20.03
2022-12-19T05:36:52.969Z,17.37
2022-12-19T05:39:20.112Z,16.62
2022-12-19T05:41:49.204Z,15.30
2022-12-19T05:44:16.607Z,16.73
2022-12-19T05:46:43.521Z,16.17
2022-12-19T05:49:10.393Z,15.73
2022-12-19T05:51:37.745Z,17.35
2022-12-19T05:54:04.838Z,16.48
2022-12-19T05:56:31.769Z,17.20
2022-12-19T05:58:58.605Z,16.47
2022-12-19T06:01:27.645Z,14.80
2022-12-19T06:03:55.306Z,15.30
2022-12-19T06:06:25.481Z,17.10
2022-12-19T06:08:58.873Z,14.77
2022-12-19T06:11:26.993Z,15.63
2022-12-19T06:13:54.037Z,15.38
2022-12-19T06:16:22.654Z,16.15
2022-12-19T06:18:49.562Z,14.73
2022-12-19T06:21:18.941Z,14.93
2022-12-19T06:23:46.564Z,16.70
2022-12-19T06:26:19.548Z,15.40
2022-12-19T06:28:51.831Z,14.18
2022-12-19T06:31:23.695Z,15.25
2022-12-19T06:33:52.086Z,16.15
2022-12-19T06:36:22.709Z,16.03
2022-12-19T06:38:50.784Z,14.75
2022-12-19T06:41:37.673Z,15.30
2022-12-19T06:44:07.434Z,14.30
2022-12-19T06:46:35.280Z,14.52
2022-12-19T06:49:02.230Z,16.00
2022-12-19T06:51:29.263Z,16.12
2022-12-19T06:53:56.360Z,14.93
2022-12-19T06:56:23.830Z,14.18
2022-12-19T06:58:50.903Z,14.13
2022-12-19T07:01:29.419Z,15.17
2022-12-19T07:03:56.636Z,15.57
2022-12-19T07:06:23.933Z,14.00
2022-12-19T07:08:50.841Z,14.73
2022-12-19T07:11:17.849Z,13.07
2022-12-19T07:13:44.678Z,14.10
2022-12-19T07:16:11.585Z,13.73
2022-12-19T07:18:40.301Z,12.75
2022-12-19T07:21:11.309Z,14.45
2022-12-19T07:23:39.233Z,13.93
2022-12-19T07:26:06.278Z,12.43
2022-12-19T07:28:34.390Z,13.62
2022-12-19T07:31:01.618Z,11.80
2022-12-19T07:33:28.477Z,14.50
2022-12-19T07:35:55.281Z,14.10
2022-12-19T07:38:22.112Z,13.70
2022-12-19T07:40:48.897Z,11.82
2022-12-19T07:43:15.979Z,13.38
2022-12-19T07:45:42.930Z,10.30
2022-12-19T07:48:10.250Z,11.38
2022-12-19T07:50:37.179Z,10.43
2022-12-19T07:53:04.106Z,9.75
2022-12-19T07:55:30.930Z,6.93
2022-12-19T07:57:59.661Z,9.23
2022-12-19T08:00:26.608Z,8.57
2022-12-19T08:02:53.585Z,7.67
2022-12-19T08:05:20.506Z,8.27
2022-12-19T08:07:47.458Z,8.52
2022-12-19T08:10:15.153Z,7.97
2022-12-19T08:12:42.203Z,8.50
2022-12-19T08:15:09.763Z,8.70
2022-12-19T08:17:41.445Z,6.28
2022-12-19T08:20:11.383Z,9.60
2022-12-19T08:22:38.303Z,8.40
2022-12-19T08:25:07.201Z,6.72
2022-12-19T08:27:34.960Z,9.80
2022-12-19T08:30:02.096Z,7.55
2022-12-19T08:32:29.097Z,8.20
2022-12-19T08:34:56.759Z,5.07
2022-12-19T08:37:23.626Z,11.48
2022-12-19T08:39:50.436Z,9.23
2022-12-19T08:42:17.552Z,9.80
2022-12-19T08:44:44.361Z,9.73
2022-12-19T08:47:11.257Z,9.05
2022-12-19T08:49:38.138Z,9.90
2022-12-19T08:52:04.971Z,9.90
2022-12-19T08:54:31.990Z,6.28
2022-12-19T08:56:58.790Z,8.57
2022-12-19T08:59:30.758Z,9.50
2022-12-19T09:02:02.039Z,10.20
2022-12-19T09:05:46.706Z,9.17
2022-12-19T09:07:17.027Z,8.55
2022-12-19T09:09:44.979Z,8.60
2022-12-19T09:12:13.866Z,10.27
2022-12-19T09:14:40.817Z,7.97
2022-12-19T09:17:07.758Z,8.53
2022-12-19T09:19:36.166Z,9.02
2022-12-19T09:22:03.074Z,9.23
2022-12-19T09:24:29.822Z,9.45
2022-12-19T09:26:56.715Z,8.85
2022-12-19T09:29:24.934Z,9.90
2022-12-19T09:31:56.115Z,8.75
2022-12-19T09:34:38.055Z,9.00
2022-12-19T09:37:17.241Z,9.20
2022-12-19T09:39:48.256Z,8.38
2022-12-19T09:42:27.226Z,9.43
2022-12-19T09:44:59.388Z,9.15
2022-12-19T09:47:33.641Z,9.88
2022-12-19T09:50:02.599Z,10.13
2022-12-19T09:52:42.515Z,9.30
2022-12-19T09:55:24.472Z,9.07
2022-12-19T09:58:18.704Z,9.45
2022-12-19T10:00:55.940Z,10.55
2022-12-19T10:03:30.480Z,8.60
2022-12-19T10:07:08.762Z,9.50
2022-12-19T10:10:12.892Z,8.80
2022-12-19T10:12:43.722Z,10.05
2022-12-19T10:15:19.164Z,10.55
2022-12-19T10:18:02.255Z,11.02
2022-12-19T10:20:45.037Z,10.32
2022-12-19T10:23:26.533Z,10.33
2022-12-19T10:26:14.832Z,9.93
2022-12-19T10:28:44.953Z,10.48
2022-12-19T10:31:21.593Z,10.75
2022-12-19T10:34:02.915Z,10.02
2022-12-19T10:37:04.693Z,10.67
2022-12-19T10:39:31.815Z,10.68
2022-12-19T10:42:15.741Z,10.93
2022-12-19T10:44:44.862Z,9.35
2022-12-19T10:47:17.227Z,10.25
2022-12-19T10:49:45.109Z,9.00
2022-12-19T10:52:13.247Z,10.10
2022-12-19T10:54:44.102Z,11.00
2022-12-19T10:57:28.538Z,10.70
2022-12-19T11:00:06.576Z,9.85
2022-12-19T11:02:39.783Z,9.73
2022-12-19T11:05:29.327Z,10.18
2022-12-19T11:08:02.060Z,10.00
2022-12-19T11:12:35.536Z,8.98
2022-12-19T11:17:11.722Z,9.60
2022-12-19T11:21:10.983Z,9.10
2022-12-19T11:29:36.450Z,8.75
2022-12-19T11:29:38.302Z,10.40
2022-12-19T11:30:45.318Z,9.80
2022-12-19T11:30:45.509Z,10.18
2022-12-19T11:33:16.967Z,9.68
2022-12-19T11:35:52.911Z,9.77
2022-12-19T11:38:53.013Z,8.95
2022-12-19T11:41:32.604Z,8.80
2022-12-19T11:44:19.684Z,9.70
2022-12-19T11:46:57.094Z,8.98
2022-12-19T11:49:43.342Z,8.77
2022-12-19T11:55:41.922Z,9.77
2022-12-19T11:58:11.599Z,8.50
2022-12-19T12:00:51.208Z,8.98
2022-12-19T12:03:30.308Z,10.40
2022-12-19T12:05:58.561Z,9.07
2022-12-19T12:10:36.904Z,9.15
2022-12-19T12:20:19.903Z,8.43
2022-12-19T12:23:05.743Z,9.25
2022-12-19T12:31:01.729Z,9.80
2022-12-19T12:31:06.800Z,9.13
2022-12-19T12:31:40.361Z,9.73
2022-12-19T12:31:48.868Z,10.70
2022-12-19T12:32:04.345Z,10.48
2022-12-19T12:35:36.475Z,9.13
2022-12-19T12:39:34.029Z,10.02
2022-12-19T12:42:16.248Z,9.67
2022-12-19T12:44:46.511Z,9.38
2022-12-19T12:47:24.374Z,9.25
2022-12-19T12:50:14.562Z,9.38
2022-12-19T12:52:48.443Z,9.77
2022-12-19T12:55:15.401Z,8.83
2022-12-19T12:57:42.259Z,9.00
2022-12-19T13:00:15.483Z,9.48
2022-12-19T13:02:51.600Z,9.57
2022-12-19T13:05:24.551Z,10.05
2022-12-19T13:07:55.205Z,11.17
2022-12-19T13:10:30.813Z,10.10
2022-12-19T13:13:02.166Z,8.70
2022-12-19T13:15:29.095Z,10.20
2022-12-19T13:17:55.971Z,10.00
2022-12-19T13:20:27.737Z,10.37
2022-12-19T13:22:58.367Z,8.73
2022-12-19T13:25:34.577Z,9.25
2022-12-19T13:28:01.699Z,9.40
2022-12-19T13:30:30.376Z,9.50
2022-12-19T13:32:57.926Z,10.07
2022-12-19T13:39:02.864Z,9.38
2022-12-19T13:39:56.519Z,9.95
2022-12-19T13:41:25.020Z,9.98
2022-12-19T13:43:58.677Z,10.35
2022-12-19T13:46:45.703Z,9.47
2022-12-19T13:49:15.172Z,9.68
2022-12-19T13:51:57.427Z,9.60
2022-12-19T13:54:24.533Z,9.00
2022-12-19T13:56:53.428Z,10.88
2022-12-19T13:59:23.600Z,11.43
2022-12-19T14:01:53.483Z,10.35
2022-12-19T14:04:30.193Z,11.93
2022-12-19T14:07:06.201Z,11.73
2022-12-19T14:11:26.230Z,9.80
2022-12-19T14:13:43.628Z,10.87
2022-12-19T14:15:43.954Z,10.93
2022-12-19T14:18:42.657Z,9.98
2022-12-19T14:22:05.226Z,11.40
2022-12-19T14:24:16.399Z,16.27
2022-12-19T14:28:20.205Z,13.23
2022-12-19T14:30:19.394Z,9.77
2022-12-19T14:33:44.840Z,10.55
2022-12-19T14:36:05.026Z,12.27
2022-12-19T14:39:22.433Z,11.90
2022-12-19T14:41:08.192Z,10.47
2022-12-19T14:50:42.628Z,10.15
2022-12-19T14:54:11.220Z,11.12
2022-12-19T14:54:24.919Z,10.43
2022-12-19T14:54:34.137Z,10.85
2022-12-19T14:56:08.239Z,10.70
2022-12-19T14:58:52.175Z,9.38
2022-12-19T15:01:28.497Z,10.45
2022-12-19T15:04:51.952Z,9.80
2022-12-19T15:07:06.945Z,10.80
2022-12-19T15:11:03.851Z,11.90
2022-12-19T15:14:47.391Z,11.35
2022-12-19T15:16:23.134Z,10.80
2022-12-19T15:18:51.548Z,11.10
2022-12-19T15:21:18.365Z,12.35
2022-12-19T15:23:45.826Z,12.07
2022-12-19T15:26:16.838Z,10.85
2022-12-19T15:28:48.468Z,11.25
2022-12-19T15:31:34.632Z,12.32
2022-12-19T15:34:36.347Z,12.25
2022-12-19T15:37:05.055Z,11.43
2022-12-19T15:39:31.982Z,14.38
2022-12-19T15:42:00.377Z,13.93
2022-12-19T15:44:36.755Z,13.00
2022-12-19T15:47:06.552Z,12.48
2022-12-19T15:49:35.260Z,12.57
2022-12-19T15:52:02.998Z,13.43
2022-12-19T15:57:36.580Z,12.68
2022-12-19T16:00:15.743Z,13.50
2022-12-19T16:03:20.991Z,14.17
2022-12-19T16:05:29.986Z,12.25
2022-12-19T16:07:58.824Z,13.88
2022-12-19T16:10:26.521Z,13.40
2022-12-19T16:12:55.800Z,13.82
2022-12-19T16:15:29.514Z,12.97
2022-12-19T16:17:58.215Z,13.45
2022-12-19T16:20:28.330Z,13.30
2022-12-19T16:22:55.425Z,12.88
2022-12-19T16:25:25.355Z,13.82
2022-12-19T16:27:56.393Z,14.67
2022-12-19T16:30:27.863Z,14.32
2022-12-19T16:32:54.794Z,13.62
2022-12-19T16:35:40.642Z,13.90
2022-12-19T16:38:11.149Z,13.25
2022-12-19T16:40:38.507Z,13.27
2022-12-19T16:43:12.595Z,14.90
2022-12-19T16:45:39.815Z,13.23
2022-12-19T16:48:25.235Z,13.95
2022-12-19T16:50:52.462Z,12.95
2022-12-19T16:53:19.782Z,12.90
2022-12-19T16:55:48.851Z,14.15
2022-12-19T16:58:20.125Z,12.37
2022-12-19T17:00:47.791Z,11.95
2022-12-19T17:03:41.538Z,11.95
2022-12-19T17:06:12.838Z,12.37
2022-12-19T17:08:39.831Z,12.23
2022-12-19T17:11:11.739Z,11.85
2022-12-19T17:13:38.831Z,12.65
2022-12-19T17:16:06.736Z,12.30
2022-12-19T17:18:37.214Z,12.10
2022-12-19T17:21:04.369Z,11.30
2022-12-19T17:23:32.629Z,12.10
2022-12-19T17:26:00.977Z,11.40
2022-12-19T17:28:29.363Z,10.95
2022-12-19T17:30:59.374Z,13.03
2022-12-19T17:33:34.137Z,11.43
2022-12-19T17:36:02.165Z,12.55
2022-12-19T17:38:29.418Z,12.65
2022-12-19T17:40:56.413Z,11.88
2022-12-19T17:43:23.315Z,12.20
2022-12-19T17:45:51.123Z,11.48
2022-12-19T17:48:31.257Z,11.60
2022-12-19T17:50:59.250Z,10.75
2022-12-19T17:53:26.440Z,10.18
2022-12-19T17:55:53.484Z,11.20
2022-12-19T17:58:21.806Z,11.63
2022-12-19T18:00:50.022Z,11.45
2022-12-19T18:03:25.854Z,11.68
2022-12-19T18:05:55.383Z,11.32
2022-12-19T18:08:30.940Z,13.03
2022-12-19T18:11:00.466Z,11.15
2022-12-19T18:13:28.866Z,11.50
2022-12-19T18:16:01.437Z,11.75
2022-12-19T18:18:33.466Z,11.80
2022-12-19T18:21:02.343Z,12.53
2022-12-19T18:23:33.077Z,12.37
2022-12-19T18:26:02.347Z,11.90
2022-12-19T18:28:30.191Z,12.57
2022-12-19T18:31:04.584Z,12.23
2022-12-19T18:33:38.061Z,11.87
2022-12-19T18:36:06.289Z,12.30
2022-12-19T18:38:33.575Z,11.77
2022-12-19T18:41:00.708Z,13.05
2022-12-19T18:43:27.810Z,12.40
2022-12-19T18:45:55.163Z,11.57
2022-12-19T18:48:37.242Z,12.07
2022-12-19T18:51:06.104Z,11.60
2022-12-19T18:53:35.728Z,12.65
2022-12-19T18:56:05.286Z,12.80
2022-12-19T18:58:32.740Z,13.30
2022-12-19T19:01:01.439Z,12.57
2022-12-19T19:03:34.463Z,12.65
2022-12-19T19:06:01.675Z,12.95
2022-12-19T19:08:31.668Z,12.73
2022-12-19T19:11:00.279Z,12.67
2022-12-19T19:13:28.207Z,12.73
2022-12-19T19:15:59.084Z,12.07
2022-12-19T19:18:32.145Z,11.85
2022-12-19T19:21:02.285Z,13.60
2022-12-19T19:23:34.932Z,13.13
2022-12-19T19:26:02.168Z,13.90
2022-12-19T19:28:29.044Z,14.18
2022-12-19T19:30:57.546Z,12.82
2022-12-19T19:33:30.278Z,12.50
2022-12-19T19:36:05.992Z,12.57
2022-12-19T19:38:38.144Z,13.10
2022-12-19T19:41:05.205Z,12.23
2022-12-19T19:43:35.327Z,12.60
2022-12-19T19:46:02.749Z,9.82
2022-12-19T19:48:31.153Z,13.33
2022-12-19T19:50:58.117Z,12.15
2022-12-19T19:53:25.328Z,12.43
2022-12-19T19:56:01.297Z,13.00
2022-12-19T19:58:29.750Z,12.40
2022-12-19T20:00:57.286Z,11.17
2022-12-19T20:03:24.912Z,11.50
2022-12-19T20:06:00.371Z,11.48
2022-12-19T20:08:30.963Z,12.95
2022-12-19T20:11:01.120Z,16.10
2022-12-19T20:13:31.862Z,11.97
2022-12-19T20:16:09.995Z,16.55
2022-12-19T20:18:38.773Z,15.07
2022-12-19T20:21:13.459Z,14.30
2022-12-19T20:23:42.931Z,13.65
2022-12-19T20:26:11.823Z,12.83
2022-12-19T20:28:45.873Z,11.70
2022-12-19T20:31:15.205Z,12.70
2022-12-19T20:33:42.522Z,12.85
2022-12-19T20:36:13.519Z,12.82
2022-12-19T20:38:41.237Z,12.87
2022-12-19T20:41:09.141Z,13.25
2022-12-19T20:43:37.696Z,12.18
2022-12-19T20:46:07.117Z,13.05
2022-12-19T20:48:34.520Z,14.23
2022-12-19T20:51:02.576Z,14.17
2022-12-19T20:53:29.455Z,13.05
2022-12-19T20:55:59.427Z,13.65
2022-12-19T20:58:28.268Z,14.35
2022-12-19T21:00:56.619Z,14.45
2022-12-19T21:03:29.453Z,14.00
2022-12-19T21:05:57.117Z,13.98
2022-12-19T21:08:25.697Z,14.32
2022-12-19T21:10:55.706Z,13.80
2022-12-19T21:13:23.634Z,12.77
2022-12-19T21:15:55.067Z,14.13
2022-12-19T21:18:22.750Z,12.60
2022-12-19T21:20:50.235Z,13.80
2022-12-19T21:23:17.469Z,14.02
2022-12-19T21:25:44.968Z,15.48
2022-12-19T21:28:11.786Z,14.17
2022-12-19T21:30:38.689Z,14.52
2022-12-19T21:33:05.548Z,13.45
2022-12-19T21:35:34.253Z,13.68
2022-12-19T21:38:02.031Z,12.88
2022-12-19T21:40:28.996Z,13.90
2022-12-19T21:42:55.776Z,13.60
2022-12-19T21:45:22.533Z,12.68
2022-12-19T21:47:50.370Z,12.90
2022-12-19T21:50:17.346Z,14.23
2022-12-19T21:52:44.625Z,13.03
2022-12-19T21:55:11.483Z,14.63
2022-12-19T21:57:42.385Z,12.45
2022-12-19T22:00:13.563Z,13.43
2022-12-19T22:02:55.374Z,13.73
2022-12-19T22:05:27.247Z,12.57
2022-12-19T22:07:54.059Z,13.75
2022-12-19T22:10:21.467Z,14.40
2022-12-19T22:12:48.525Z,15.10
2022-12-19T22:15:15.412Z,13.98
2022-12-19T22:17:43.884Z,13.83
2022-12-19T22:20:11.100Z,13.85
2022-12-19T22:22:38.257Z,14.65
2022-12-19T22:25:05.591Z,13.90
2022-12-19T22:27:32.510Z,13.60
2022-12-19T22:30:02.248Z,13.60
2022-12-19T22:32:33.734Z,14.70
2022-12-19T22:35:00.639Z,14.20
2022-12-19T22:37:27.448Z,15.57
2022-12-19T22:40:00.265Z,14.45
2022-12-19T22:42:27.944Z,14.30
2022-12-19T22:44:54.749Z,14.13
2022-12-19T22:47:21.718Z,13.48
2022-12-19T22:49:51.070Z,13.43
2022-12-19T22:52:18.401Z,14.43
2022-12-19T22:54:45.209Z,13.23
2022-12-19T22:57:12.137Z,13.62
2022-12-19T22:59:39.886Z,13.10
2022-12-19T23:02:07.021Z,13.07
2022-12-19T23:04:35.057Z,12.98
2022-12-19T23:07:02.239Z,12.80
2022-12-19T23:09:29.111Z,13.52
2022-12-19T23:11:55.942Z,14.00
2022-12-19T23:14:22.781Z,14.00
2022-12-19T23:16:49.781Z,13.95
2022-12-19T23:19:17.089Z,14.33
2022-12-19T23:21:44.354Z,12.95
2022-12-19T23:24:12.281Z,12.82
2022-12-19T23:26:39.800Z,11.70
2022-12-19T23:29:13.067Z,12.65
2022-12-19T23:31:41.920Z,13.37
2022-12-19T23:34:08.862Z,13.20
2022-12-19T23:37:09.532Z,14.68
2022-12-19T23:39:22.700Z,13.60
2022-12-19T23:41:49.643Z,13.70
2022-12-19T23:44:16.556Z,14.07
2022-12-19T23:46:43.427Z,12.90
2022-12-19T23:49:10.375Z,12.20
2022-12-19T23:51:37.519Z,14.25
2022-12-19T23:54:04.465Z,12.73
2022-12-19T23:56:32.771Z,14.70
2022-12-19T23:58:59.715Z,13.73
